createdAt,value
2018-06-16T00:02:08.372Z,6.80
2018-06-16T00:04:38.819Z,6.73
2018-06-16T00:07:09.275Z,6.17
2018-06-16T00:09:39.683Z,5.70
2018-06-16T00:12:09.753Z,6.23
2018-06-16T00:14:40.031Z,6.10
2018-06-16T00:17:10.336Z,6.43
2018-06-16T00:19:40.867Z,6.27
2018-06-16T00:22:12.234Z,5.80
2018-06-16T00:24:42.797Z,6.17
2018-06-16T00:27:13.240Z,5.33
2018-06-16T00:29:43.762Z,5.30
2018-06-16T00:32:14.108Z,5.37
2018-06-16T00:34:44.501Z,6.00
2018-06-16T00:37:14.712Z,5.37
2018-06-16T00:39:45.040Z,5.97
2018-06-16T00:42:15.955Z,5.87
2018-06-16T00:44:46.673Z,5.57
2018-06-16T00:47:16.724Z,6.20
2018-06-16T00:49:47.438Z,6.47
2018-06-16T00:52:17.690Z,6.30
2018-06-16T00:54:48.414Z,6.00
2018-06-16T00:57:29.756Z,6.20
2018-06-16T00:59:59.784Z,5.20
2018-06-16T01:02:30.165Z,6.10
2018-06-16T01:05:00.441Z,6.07
2018-06-16T01:07:30.868Z,6.10
2018-06-16T01:10:00.888Z,6.17
2018-06-16T01:12:31.157Z,5.80
2018-06-16T01:15:01.441Z,6.43
2018-06-16T01:17:31.685Z,5.90
2018-06-16T01:20:02.664Z,6.30
2018-06-16T01:22:33.172Z,6.10
2018-06-16T01:25:09.946Z,6.23
2018-06-16T01:27:40.139Z,6.03
2018-06-16T01:30:10.500Z,5.83
2018-06-16T01:32:40.979Z,6.07
2018-06-16T01:35:11.305Z,6.50
2018-06-16T01:37:41.863Z,6.03
2018-06-16T01:40:12.119Z,5.07
2018-06-16T01:42:43.028Z,5.87
2018-06-16T01:45:13.440Z,5.63
2018-06-16T01:47:43.843Z,6.50
2018-06-16T01:50:14.578Z,6.07
2018-06-16T01:52:44.990Z,5.60
2018-06-16T01:55:15.544Z,5.80
2018-06-16T01:57:45.964Z,6.13
2018-06-16T02:00:16.404Z,5.60
2018-06-16T02:02:46.879Z,5.90
2018-06-16T02:05:17.769Z,5.77
2018-06-16T02:07:48.062Z,6.80
2018-06-16T02:10:18.222Z,5.70
2018-06-16T02:12:48.492Z,5.90
2018-06-16T02:15:18.811Z,5.30
2018-06-16T02:17:49.211Z,5.50
2018-06-16T02:20:19.524Z,6.60
2018-06-16T02:22:49.582Z,6.30
2018-06-16T02:25:20.131Z,5.33
2018-06-16T02:27:50.860Z,6.27
2018-06-16T02:30:21.346Z,6.00
2018-06-16T02:32:51.480Z,6.03
2018-06-16T02:35:21.763Z,5.83
2018-06-16T02:37:52.559Z,5.43
2018-06-16T02:40:23.002Z,6.23
2018-06-16T02:42:53.228Z,5.80
2018-06-16T02:45:23.758Z,6.23
2018-06-16T02:47:54.417Z,5.27
2018-06-16T02:50:24.822Z,6.17
2018-06-16T02:52:55.726Z,6.10
2018-06-16T02:55:26.255Z,5.77
2018-06-16T02:57:56.741Z,6.20
2018-06-16T03:00:27.166Z,6.00
2018-06-16T03:02:57.698Z,5.93
2018-06-16T03:05:28.344Z,5.87
2018-06-16T03:07:58.745Z,5.63
2018-06-16T03:10:29.359Z,5.63
2018-06-16T03:12:59.748Z,6.00
2018-06-16T03:15:29.991Z,5.70
2018-06-16T03:18:00.564Z,6.03
2018-06-16T03:20:31.007Z,6.40
2018-06-16T03:23:01.380Z,6.27
2018-06-16T03:25:31.899Z,5.77
2018-06-16T03:28:02.116Z,5.70
2018-06-16T03:30:32.365Z,5.93
2018-06-16T03:33:02.526Z,6.17
2018-06-16T03:35:32.926Z,5.90
2018-06-16T03:38:03.163Z,5.80
2018-06-16T03:40:33.322Z,5.60
2018-06-16T03:43:03.503Z,6.20
2018-06-16T03:45:34.723Z,6.00
2018-06-16T03:48:05.105Z,5.90
2018-06-16T03:50:35.407Z,6.00
2018-06-16T03:53:05.857Z,5.97
2018-06-16T03:55:36.830Z,6.03
2018-06-16T03:58:07.123Z,5.60
2018-06-16T04:00:37.614Z,5.40
2018-06-16T04:03:07.929Z,5.50
2018-06-16T04:05:39.299Z,6.07
2018-06-16T04:08:09.596Z,5.07
2018-06-16T04:10:40.159Z,5.30
2018-06-16T04:13:10.470Z,6.20
2018-06-16T04:15:41.219Z,5.43
2018-06-16T04:18:11.651Z,5.57
2018-06-16T04:20:42.119Z,5.00
2018-06-16T04:23:12.447Z,6.37
2018-06-16T04:25:42.959Z,6.40
2018-06-16T04:28:13.137Z,6.07
2018-06-16T04:30:43.400Z,5.87
2018-06-16T04:33:13.817Z,5.80
2018-06-16T04:35:44.338Z,5.33
2018-06-16T04:38:15.039Z,5.43
2018-06-16T04:40:45.593Z,6.30
2018-06-16T04:43:16.011Z,6.00
2018-06-16T04:45:47.042Z,5.60
2018-06-16T04:48:17.364Z,5.93
2018-06-16T04:50:48.361Z,6.40
2018-06-16T04:53:19.146Z,5.60
2018-06-16T04:55:49.543Z,5.77
2018-06-16T04:58:19.656Z,5.47
2018-06-16T05:00:50.316Z,5.70
2018-06-16T05:03:20.492Z,5.43
2018-06-16T05:05:51.027Z,5.20
2018-06-16T05:08:21.562Z,6.50
2018-06-16T05:10:52.398Z,5.33
2018-06-16T05:13:22.691Z,5.90
2018-06-16T05:15:53.173Z,5.60
2018-06-16T05:18:23.523Z,5.33
2018-06-16T05:20:54.661Z,6.20
2018-06-16T05:23:25.120Z,6.60
2018-06-16T05:25:55.675Z,6.03
2018-06-16T05:28:26.053Z,5.50
2018-06-16T05:30:56.248Z,5.37
2018-06-16T05:33:26.885Z,5.80
2018-06-16T05:35:57.324Z,5.80
2018-06-16T05:38:27.730Z,6.03
2018-06-16T05:40:58.270Z,6.37
2018-06-16T05:43:28.413Z,5.87
2018-06-16T05:45:58.870Z,5.77
2018-06-16T05:48:29.589Z,5.27
2018-06-16T05:50:59.770Z,5.20
2018-06-16T05:53:30.744Z,5.95
2018-06-16T05:56:01.864Z,5.63
2018-06-16T05:58:32.199Z,5.90
2018-06-16T06:01:02.592Z,5.60
2018-06-16T06:03:33.005Z,5.43
2018-06-16T06:06:03.273Z,5.43
2018-06-16T06:08:34.239Z,6.40
2018-06-16T06:11:04.414Z,6.20
2018-06-16T06:13:34.598Z,5.77
2018-06-16T06:16:05.241Z,5.33
2018-06-16T06:18:35.587Z,5.23
2018-06-16T06:21:05.757Z,6.10
2018-06-16T06:23:36.014Z,5.27
2018-06-16T06:26:06.337Z,5.33
2018-06-16T06:28:37.703Z,5.60
2018-06-16T06:31:08.221Z,6.27
2018-06-16T06:33:38.491Z,5.50
2018-06-16T06:36:08.947Z,5.60
2018-06-16T06:38:39.160Z,6.00
2018-06-16T06:41:09.557Z,5.50
2018-06-16T06:43:40.025Z,7.20
2018-06-16T06:46:10.602Z,5.80
2018-06-16T06:48:41.110Z,6.10
2018-06-16T06:51:11.547Z,5.80
2018-06-16T06:53:41.712Z,5.90
2018-06-16T06:56:11.903Z,6.40
2018-06-16T06:58:42.212Z,5.90
2018-06-16T07:01:12.527Z,6.20
2018-06-16T07:03:42.991Z,5.87
2018-06-16T07:06:13.235Z,5.63
2018-06-16T07:08:43.795Z,6.07
2018-06-16T07:11:14.542Z,5.80
2018-06-16T07:13:45.254Z,5.00
2018-06-16T07:16:15.531Z,5.93
2018-06-16T07:18:46.548Z,5.93
2018-06-16T07:21:17.037Z,6.03
2018-06-16T07:23:47.240Z,5.87
2018-06-16T07:26:17.504Z,6.20
2018-06-16T07:28:47.720Z,6.50
2018-06-16T07:31:18.219Z,6.70
2018-06-16T07:33:48.345Z,5.67
2018-06-16T07:36:18.958Z,6.00
2018-06-16T07:38:49.195Z,6.33
2018-06-16T07:41:19.562Z,6.00
2018-06-16T07:43:50.451Z,5.77
2018-06-16T07:46:20.630Z,5.73
2018-06-16T07:48:51.119Z,5.37
2018-06-16T07:51:21.351Z,6.17
2018-06-16T07:53:51.562Z,5.70
2018-06-16T07:56:21.844Z,5.37
2018-06-16T07:58:52.659Z,6.00
2018-06-16T08:01:23.418Z,5.57
2018-06-16T08:03:53.831Z,6.77
2018-06-16T08:06:24.169Z,5.50
2018-06-16T08:08:54.570Z,5.43
2018-06-16T08:11:25.328Z,5.63
2018-06-16T08:13:55.595Z,5.57
2018-06-16T08:16:26.253Z,5.90
2018-06-16T08:18:57.787Z,5.80
2018-06-16T08:21:28.215Z,5.77
2018-06-16T08:23:58.555Z,5.50
2018-06-16T08:26:29.047Z,5.47
2018-06-16T08:28:59.705Z,5.70
2018-06-16T08:31:30.165Z,4.93
2018-06-16T08:34:00.431Z,5.23
2018-06-16T08:36:30.963Z,5.33
2018-06-16T08:39:02.010Z,4.90
2018-06-16T08:41:32.055Z,5.40
2018-06-16T08:44:02.500Z,5.60
2018-06-16T08:46:32.845Z,7.57
2018-06-16T08:49:03.195Z,6.10
2018-06-16T08:51:35.463Z,5.60
2018-06-16T08:54:06.469Z,5.60
2018-06-16T08:56:36.898Z,5.57
2018-06-16T08:59:07.050Z,5.47
2018-06-16T09:01:37.317Z,5.30
2018-06-16T09:04:07.614Z,5.10
2018-06-16T09:06:37.736Z,4.87
2018-06-16T09:09:09.226Z,5.23
2018-06-16T09:11:40.260Z,5.03
2018-06-16T09:14:10.193Z,5.33
2018-06-16T09:16:40.586Z,5.67
2018-06-16T09:19:10.893Z,4.50
2018-06-16T09:21:41.377Z,4.97
2018-06-16T09:24:11.706Z,4.97
2018-06-16T09:26:42.022Z,5.23
2018-06-16T09:29:12.351Z,4.77
2018-06-16T09:31:42.866Z,4.77
2018-06-16T09:34:13.622Z,4.60
2018-06-16T09:36:44.061Z,4.53
2018-06-16T09:39:14.446Z,4.10
2018-06-16T09:41:44.883Z,4.30
2018-06-16T09:44:15.157Z,4.13
2018-06-16T09:46:45.447Z,4.13
2018-06-16T09:49:15.806Z,3.60
2018-06-16T09:51:46.005Z,4.00
2018-06-16T09:54:16.292Z,3.40
2018-06-16T09:56:47.369Z,4.10
2018-06-16T09:59:17.513Z,3.60
2018-06-16T10:01:47.931Z,3.47
2018-06-16T10:04:18.312Z,3.30
2018-06-16T10:06:48.660Z,4.07
2018-06-16T10:09:19.331Z,4.00
2018-06-16T10:11:49.932Z,4.10
2018-06-16T10:14:20.473Z,3.63
2018-06-16T10:16:50.815Z,5.50
2018-06-16T10:19:21.147Z,5.67
2018-06-16T10:21:51.391Z,3.33
2018-06-16T10:24:21.504Z,3.20
2018-06-16T10:26:51.738Z,3.53
2018-06-16T10:29:21.947Z,3.80
2018-06-16T10:31:52.843Z,3.10
2018-06-16T10:34:23.211Z,3.73
2018-06-16T10:36:53.425Z,3.17
2018-06-16T10:39:23.762Z,3.80
2018-06-16T10:41:53.856Z,3.30
2018-06-16T10:44:24.330Z,3.30
2018-06-16T10:46:54.723Z,3.10
2018-06-16T10:49:25.065Z,3.40
2018-06-16T10:51:55.275Z,2.83
2018-06-16T10:54:25.828Z,2.90
2018-06-16T10:56:56.924Z,3.27
2018-06-16T10:59:27.372Z,3.03
2018-06-16T11:01:57.725Z,3.07
2018-06-16T11:04:27.988Z,3.07
2018-06-16T11:06:58.500Z,3.00
2018-06-16T11:09:29.113Z,3.13
2018-06-16T11:11:59.207Z,3.13
2018-06-16T11:14:29.580Z,7.03
2018-06-16T11:17:00.125Z,3.17
2018-06-16T11:19:30.363Z,3.40
2018-06-16T11:22:00.589Z,3.07
2018-06-16T11:24:32.684Z,3.73
2018-06-16T11:27:03.127Z,3.10
2018-06-16T11:29:33.473Z,3.27
2018-06-16T11:32:03.755Z,2.87
2018-06-16T11:34:33.915Z,2.70
2018-06-16T11:37:04.255Z,3.50
2018-06-16T11:39:34.497Z,3.50
2018-06-16T11:42:04.911Z,3.50
2018-06-16T11:44:35.384Z,3.30
2018-06-16T11:47:05.758Z,3.37
2018-06-16T11:49:36.085Z,3.50
2018-06-16T11:52:06.447Z,3.50
2018-06-16T11:54:36.986Z,2.80
2018-06-16T11:57:07.576Z,3.60
2018-06-16T11:59:38.047Z,3.37
2018-06-16T12:02:08.575Z,3.60
2018-06-16T12:04:39.431Z,3.83
2018-06-16T12:07:10.996Z,3.80
2018-06-16T12:09:40.972Z,3.50
2018-06-16T12:12:11.417Z,3.87
2018-06-16T12:14:41.592Z,3.53
2018-06-16T12:17:11.839Z,3.57
2018-06-16T12:19:42.308Z,4.03
2018-06-16T12:22:12.935Z,3.90
2018-06-16T12:24:43.324Z,3.60
2018-06-16T12:27:13.980Z,3.90
2018-06-16T12:29:44.284Z,4.03
2018-06-16T12:32:14.931Z,3.80
2018-06-16T12:34:46.064Z,3.37
2018-06-16T12:37:16.528Z,3.73
2018-06-16T12:39:46.768Z,3.40
2018-06-16T12:42:17.276Z,4.00
2018-06-16T12:44:47.465Z,3.70
2018-06-16T12:47:21.035Z,3.63
2018-06-16T12:49:51.622Z,4.33
2018-06-16T12:52:21.811Z,4.47
2018-06-16T12:54:52.232Z,3.43
2018-06-16T12:57:22.971Z,3.70
2018-06-16T12:59:53.656Z,3.53
2018-06-16T13:02:24.737Z,3.67
2018-06-16T13:04:55.962Z,3.93
2018-06-16T13:07:26.543Z,3.33
2018-06-16T13:09:58.906Z,3.70
2018-06-16T13:12:29.356Z,4.17
2018-06-16T13:14:59.614Z,5.20
2018-06-16T13:17:30.069Z,4.10
2018-06-16T13:20:00.436Z,4.07
2018-06-16T13:22:30.986Z,3.80
2018-06-16T13:25:02.384Z,4.00
2018-06-16T13:27:32.688Z,4.43
2018-06-16T13:30:03.387Z,4.03
2018-06-16T13:32:33.651Z,3.50
2018-06-16T13:35:10.467Z,4.20
2018-06-16T13:37:41.436Z,4.03
2018-06-16T13:40:11.869Z,4.00
2018-06-16T13:42:42.400Z,4.00
2018-06-16T13:45:13.067Z,3.60
2018-06-16T13:47:43.242Z,4.00
2018-06-16T13:50:14.278Z,4.30
2018-06-16T13:52:44.689Z,4.03
2018-06-16T13:55:15.189Z,4.30
2018-06-16T13:57:45.571Z,4.50
2018-06-16T14:00:16.456Z,4.23
2018-06-16T14:02:46.891Z,4.20
2018-06-16T14:05:17.219Z,3.87
2018-06-16T14:07:47.624Z,4.07
2018-06-16T14:10:18.286Z,3.40
2018-06-16T14:12:48.707Z,4.03
2018-06-16T14:15:19.609Z,4.47
2018-06-16T14:17:50.597Z,4.60
2018-06-16T14:20:21.249Z,3.63
2018-06-16T14:22:51.447Z,4.10
2018-06-16T14:25:22.148Z,3.53
2018-06-16T14:27:53.087Z,4.40
2018-06-16T14:30:23.846Z,4.03
2018-06-16T14:32:54.209Z,4.07
2018-06-16T14:35:24.453Z,3.90
2018-06-16T14:37:54.932Z,3.60
2018-06-16T14:40:25.875Z,3.70
2018-06-16T14:42:56.800Z,4.03
2018-06-16T14:45:28.904Z,4.30
2018-06-16T14:47:59.113Z,3.70
2018-06-16T14:50:29.818Z,4.17
2018-06-16T14:53:00.100Z,4.87
2018-06-16T14:55:30.273Z,3.17
2018-06-16T14:58:00.788Z,3.73
2018-06-16T15:00:37.855Z,3.70
2018-06-16T15:03:08.500Z,3.20
2018-06-16T15:05:38.902Z,3.73
2018-06-16T15:08:09.298Z,13.90
2018-06-16T15:10:39.547Z,5.00
2018-06-16T15:13:10.161Z,3.73
2018-06-16T15:15:41.089Z,4.17
2018-06-16T15:18:11.447Z,3.77
2018-06-16T15:20:42.828Z,7.63
2018-06-16T15:23:14.000Z,5.33
2018-06-16T15:25:44.403Z,5.20
2018-06-16T15:28:14.892Z,4.70
2018-06-16T15:30:45.206Z,4.33
2018-06-16T15:33:15.694Z,4.00
2018-06-16T15:35:46.144Z,3.83
2018-06-16T15:38:16.662Z,4.30
2018-06-16T15:40:47.064Z,3.93
2018-06-16T15:43:17.452Z,4.17
2018-06-16T15:45:48.519Z,4.53
2018-06-16T15:48:18.896Z,3.53
2018-06-16T15:50:49.345Z,4.23
2018-06-16T15:53:20.686Z,4.20
2018-06-16T15:55:51.131Z,4.43
2018-06-16T15:58:21.615Z,4.87
2018-06-16T16:00:52.742Z,4.40
2018-06-16T16:03:23.098Z,4.37
2018-06-16T16:05:53.908Z,5.30
2018-06-16T16:08:24.531Z,4.17
2018-06-16T16:10:55.181Z,4.10
2018-06-16T16:13:31.673Z,4.00
2018-06-16T16:16:01.886Z,4.30
2018-06-16T16:18:33.106Z,4.03
2018-06-16T16:21:03.580Z,4.87
2018-06-16T16:23:33.947Z,4.50
2018-06-16T16:26:04.566Z,3.87
2018-06-16T16:28:35.136Z,4.53
2018-06-16T16:31:05.476Z,4.70
2018-06-16T16:33:35.825Z,3.80
2018-06-16T16:36:06.390Z,4.47
2018-06-16T16:38:36.762Z,4.67
2018-06-16T16:41:07.286Z,4.23
2018-06-16T16:43:37.377Z,5.00
2018-06-16T16:46:07.735Z,4.93
2018-06-16T16:48:38.232Z,4.90
2018-06-16T16:51:09.288Z,4.90
2018-06-16T16:53:42.328Z,4.73
2018-06-16T16:56:12.746Z,5.10
2018-06-16T16:58:42.897Z,4.50
2018-06-16T17:01:13.234Z,4.23
2018-06-16T17:03:44.682Z,4.20
2018-06-16T17:06:15.022Z,5.13
2018-06-16T17:08:45.219Z,5.00
2018-06-16T17:11:15.536Z,5.10
2018-06-16T17:13:45.875Z,5.53
2018-06-16T17:16:16.316Z,5.20
2018-06-16T17:18:46.423Z,5.97
2018-06-16T17:21:17.354Z,6.00
2018-06-16T17:23:47.603Z,6.10
2018-06-16T17:26:17.799Z,5.67
2018-06-16T17:28:48.086Z,4.70
2018-06-16T17:31:18.537Z,5.43
2018-06-16T17:33:48.594Z,4.80
2018-06-16T17:36:19.108Z,6.00
2018-06-16T17:38:49.840Z,6.70
2018-06-16T17:41:20.467Z,5.57
2018-06-16T17:43:50.923Z,5.60
2018-06-16T17:46:22.418Z,6.30
2018-06-16T17:48:52.924Z,5.73
2018-06-16T17:51:23.287Z,5.70
2018-06-16T17:53:53.932Z,6.17
2018-06-16T17:56:24.103Z,5.90
2018-06-16T17:58:54.543Z,5.17
2018-06-16T18:01:24.927Z,5.63
2018-06-16T18:03:55.492Z,5.40
2018-06-16T18:06:27.347Z,5.47
2018-06-16T18:08:57.827Z,4.73
2018-06-16T18:11:27.961Z,5.07
2018-06-16T18:13:58.273Z,5.60
2018-06-16T18:16:28.730Z,4.67
2018-06-16T18:18:59.275Z,5.33
2018-06-16T18:21:29.734Z,5.70
2018-06-16T18:24:00.050Z,4.30
2018-06-16T18:26:30.282Z,4.90
2018-06-16T18:29:00.652Z,4.80
2018-06-16T18:31:31.596Z,4.87
2018-06-16T18:34:02.061Z,4.73
2018-06-16T18:36:32.528Z,4.83
2018-06-16T18:39:02.911Z,5.10
2018-06-16T18:41:33.506Z,5.27
2018-06-16T18:44:05.898Z,4.60
2018-06-16T18:46:36.742Z,5.00
2018-06-16T18:49:07.023Z,4.73
2018-06-16T18:51:37.353Z,5.83
2018-06-16T18:54:08.149Z,4.93
2018-06-16T18:56:38.311Z,5.23
2018-06-16T18:59:08.890Z,4.97
2018-06-16T19:01:39.402Z,5.20
2018-06-16T19:04:09.580Z,4.90
2018-06-16T19:06:40.188Z,4.87
2018-06-16T19:09:10.375Z,5.23
2018-06-16T19:11:41.226Z,4.60
2018-06-16T19:14:11.548Z,5.20
2018-06-16T19:16:42.868Z,4.57
2018-06-16T19:19:13.174Z,5.30
2018-06-16T19:21:43.362Z,5.30
2018-06-16T19:24:15.047Z,5.87
2018-06-16T19:26:45.421Z,5.33
2018-06-16T19:29:16.305Z,5.20
2018-06-16T19:31:48.515Z,5.40
2018-06-16T19:34:18.956Z,5.67
2018-06-16T19:36:49.120Z,5.17
2018-06-16T19:39:19.510Z,5.07
2018-06-16T19:41:49.689Z,5.10
2018-06-16T19:44:19.912Z,4.80
2018-06-16T19:46:50.277Z,5.10
2018-06-16T19:49:20.641Z,4.40
2018-06-16T19:51:50.909Z,5.47
2018-06-16T19:54:22.179Z,5.20
2018-06-16T19:56:52.516Z,4.80
2018-06-16T19:59:22.850Z,5.17
2018-06-16T20:01:53.319Z,4.80
2018-06-16T20:04:24.311Z,5.43
2018-06-16T20:06:54.459Z,5.43
2018-06-16T20:09:24.931Z,5.93
2018-06-16T20:11:55.250Z,5.90
2018-06-16T20:14:26.674Z,5.03
2018-06-16T20:16:57.176Z,5.37
2018-06-16T20:19:28.248Z,5.10
2018-06-16T20:21:58.813Z,6.17
2018-06-16T20:24:28.983Z,5.90
2018-06-16T20:26:59.140Z,5.00
2018-06-16T20:29:29.762Z,5.90
2018-06-16T20:32:00.113Z,6.00
2018-06-16T20:34:30.790Z,5.93
2018-06-16T20:37:01.204Z,6.17
2018-06-16T20:39:32.177Z,7.13
2018-06-16T20:42:02.556Z,7.00
2018-06-16T20:44:33.035Z,5.97
2018-06-16T20:47:03.529Z,5.83
2018-06-16T20:49:33.835Z,5.57
2018-06-16T20:52:04.105Z,6.67
2018-06-16T20:54:34.328Z,6.53
2018-06-16T20:57:04.780Z,6.90
2018-06-16T20:59:35.100Z,7.47
2018-06-16T21:02:05.563Z,6.33
2018-06-16T21:04:35.993Z,7.53
2018-06-16T21:07:06.421Z,7.43
2018-06-16T21:09:37.326Z,7.10
2018-06-16T21:12:07.870Z,6.87
2018-06-16T21:14:38.261Z,6.17
2018-06-16T21:17:08.793Z,7.23
2018-06-16T21:19:39.473Z,7.10
2018-06-16T21:22:10.105Z,7.23
2018-06-16T21:24:40.599Z,6.47
2018-06-16T21:27:11.534Z,7.47
2018-06-16T21:29:41.792Z,7.33
2018-06-16T21:32:13.154Z,6.20
2018-06-16T21:34:44.164Z,5.70
2018-06-16T21:37:15.741Z,6.17
2018-06-16T21:39:45.942Z,6.40
2018-06-16T21:42:15.990Z,6.87
2018-06-16T21:44:46.290Z,6.60
2018-06-16T21:47:16.586Z,5.80
2018-06-16T21:49:46.997Z,5.87
2018-06-16T21:52:18.369Z,6.00
2018-06-16T21:54:49.076Z,6.00
2018-06-16T21:57:19.739Z,7.00
2018-06-16T21:59:53.292Z,6.97
2018-06-16T22:02:23.670Z,6.10
2018-06-16T22:04:54.371Z,6.47
2018-06-16T22:07:24.766Z,7.03
2018-06-16T22:09:56.040Z,6.93
2018-06-16T22:12:26.328Z,6.50
2018-06-16T22:14:56.869Z,7.03
2018-06-16T22:17:27.795Z,7.50
2018-06-16T22:19:58.161Z,7.00
2018-06-16T22:25:04.147Z,7.30
2018-06-16T22:27:34.651Z,6.60
2018-06-16T22:30:05.121Z,6.73
2018-06-16T22:32:35.313Z,6.53
2018-06-16T22:35:11.911Z,6.93
2018-06-16T22:37:42.340Z,6.60
2018-06-16T22:40:14.042Z,6.70
2018-06-16T22:42:44.270Z,7.30
2018-06-16T22:45:16.860Z,6.97
2018-06-16T22:47:47.824Z,7.10
2018-06-16T22:50:20.064Z,7.40
2018-06-16T22:52:51.042Z,6.83
2018-06-16T22:55:21.917Z,7.10
2018-06-16T22:57:52.058Z,6.57
2018-06-16T23:00:25.102Z,7.20
2018-06-16T23:02:55.591Z,6.53
2018-06-16T23:05:26.212Z,7.03
2018-06-16T23:07:56.814Z,6.80
2018-06-16T23:10:27.316Z,6.67
2018-06-16T23:12:57.764Z,6.67
2018-06-16T23:15:28.581Z,6.07
2018-06-16T23:18:03.432Z,6.27
2018-06-16T23:20:33.816Z,6.77
2018-06-16T23:23:03.901Z,6.30
2018-06-16T23:25:36.721Z,5.53
2018-06-16T23:28:07.097Z,6.97
2018-06-16T23:30:37.343Z,6.67
2018-06-16T23:33:07.547Z,6.10
2018-06-16T23:35:37.868Z,6.40
2018-06-16T23:38:09.772Z,6.50
2018-06-16T23:40:40.411Z,5.93
2018-06-16T23:43:10.520Z,7.17
2018-06-16T23:45:40.787Z,6.30
2018-06-16T23:48:11.130Z,6.70
2018-06-16T23:50:42.315Z,6.30
2018-06-16T23:53:13.508Z,6.83
2018-06-16T23:55:48.740Z,6.93
2018-06-16T23:58:19.057Z,6.73
